createdAt,value
2022-12-15T00:10:24.341Z,11.67
2022-12-15T01:13:37.606Z,13.90
2022-12-15T01:28:59.371Z,12.17
2022-12-15T01:59:53.223Z,11.77
2022-12-15T02:15:30.629Z,7.40
2022-12-15T02:30:42.522Z,6.37
2022-12-15T02:46:05.682Z,5.80
2022-12-15T03:01:14.835Z,6.77
2022-12-15T03:16:19.169Z,7.70
2022-12-15T03:31:23.637Z,9.43
2022-12-15T03:46:28.198Z,9.67
2022-12-15T04:01:42.084Z,10.13
2022-12-15T04:16:54.425Z,9.57
2022-12-15T04:32:18.897Z,10.10
2022-12-15T04:47:46.164Z,10.40
2022-12-15T05:35:11.301Z,12.50
2022-12-15T05:50:20.165Z,13.00
2022-12-15T07:13:03.247Z,9.80
2022-12-15T12:17:40.379Z,24.00
2022-12-15T12:32:56.522Z,24.80
2022-12-15T12:48:15.136Z,20.33
2022-12-15T13:03:22.077Z,25.33
2022-12-15T13:18:30.081Z,26.50
2022-12-15T13:33:35.669Z,24.83
2022-12-15T13:48:49.337Z,25.30
2022-12-15T14:04:09.253Z,23.33
2022-12-15T14:19:15.751Z,41.30
2022-12-15T14:34:35.184Z,52.70
2022-12-15T14:49:44.322Z,46.80
2022-12-15T15:05:00.421Z,38.63
2022-12-15T15:20:09.956Z,40.10
2022-12-15T15:35:14.452Z,43.93
2022-12-15T15:50:22.541Z,49.80
2022-12-15T16:05:26.883Z,45.50
2022-12-15T16:20:31.737Z,41.40
2022-12-15T16:35:36.646Z,43.00
2022-12-15T16:50:42.749Z,39.90
2022-12-15T17:05:49.694Z,42.47
2022-12-15T17:21:04.250Z,38.77
2022-12-15T17:36:14.247Z,38.13
2022-12-15T17:51:20.070Z,45.47
2022-12-15T18:06:24.238Z,52.67
2022-12-15T18:21:29.291Z,47.67
2022-12-15T18:36:34.175Z,42.23
2022-12-15T18:51:38.597Z,59.23
2022-12-15T19:06:43.538Z,68.33
2022-12-15T19:22:07.126Z,61.43
2022-12-15T19:37:30.542Z,54.80
2022-12-15T19:52:35.042Z,53.10
2022-12-15T20:07:39.652Z,49.87
2022-12-15T20:22:45.574Z,44.27
2022-12-15T20:37:51.153Z,40.20
2022-12-15T20:52:56.527Z,42.80
2022-12-15T21:08:01.692Z,42.20
2022-12-15T21:23:06.703Z,44.80
2022-12-15T21:38:22.821Z,44.27
2022-12-15T21:53:27.867Z,41.27
2022-12-15T22:08:32.642Z,37.57
2022-12-15T22:23:38.406Z,37.40
2022-12-15T22:38:43.465Z,38.10
2022-12-15T22:53:47.962Z,35.57
2022-12-15T23:08:55.813Z,35.17
2022-12-15T23:24:00.969Z,30.77
2022-12-15T23:39:05.988Z,34.93
2022-12-15T23:54:11.044Z,35.70
